sensor_id;sensor_type;location;lat;lon;timestamp;pressure;altitude;pressure_sealevel;temperature;humidity
76257;BME280;65074;50.436;8.672;2024-03-02T00:00:08;98283.00;;;3.57;100.00
76257;BME280;65074;50.436;8.672;2024-03-02T00:02:46;98286.13;;;3.54;100.00
76257;BME280;65074;50.436;8.672;2024-03-02T00:05:13;98281.25;;;3.51;100.00
76257;BME280;65074;50.436;8.672;2024-03-02T00:07:42;98284.16;;;3.50;100.00
76257;BME280;65074;50.436;8.672;2024-03-02T00:10:10;98280.31;;;3.46;100.00
76257;BME280;65074;50.436;8.672;2024-03-02T00:12:37;98285.88;;;3.44;100.00
76257;BME280;65074;50.436;8.672;2024-03-02T00:15:39;98274.09;;;3.40;100.00
76257;BME280;65074;50.436;8.672;2024-03-02T00:18:06;98283.47;;;3.43;100.00
76257;BME280;65074;50.436;8.672;2024-03-02T00:20:31;98279.75;;;3.44;100.00
76257;BME280;65074;50.436;8.672;2024-03-02T00:23:04;98277.56;;;3.41;100.00
76257;BME280;65074;50.436;8.672;2024-03-02T00:25:43;98274.78;;;3.36;100.00
76257;BME280;65074;50.436;8.672;2024-03-02T00:28:33;98267.72;;;3.29;100.00
76257;BME280;65074;50.436;8.672;2024-03-02T00:31:05;98261.25;;;3.25;100.00
76257;BME280;65074;50.436;8.672;2024-03-02T00:33:35;98264.38;;;3.22;100.00
76257;BME280;65074;50.436;8.672;2024-03-02T00:36:02;98264.38;;;3.22;100.00
76257;BME280;65074;50.436;8.672;2024-03-02T00:38:29;98266.22;;;3.22;100.00
76257;BME280;65074;50.436;8.672;2024-03-02T00:40:56;98261.47;;;3.24;100.00
76257;BME280;65074;50.436;8.672;2024-03-02T00:45:54;98256.19;;;3.36;100.00
76257;BME280;65074;50.436;8.672;2024-03-02T00:48:19;98261.25;;;3.37;100.00
76257;BME280;65074;50.436;8.672;2024-03-02T00:50:45;98258.16;;;3.40;100.00
76257;BME280;65074;50.436;8.672;2024-03-02T00:53:12;98262.41;;;3.41;100.00
76257;BME280;65074;50.436;8.672;2024-03-02T00:55:38;98264.03;;;3.42;100.00
76257;BME280;65074;50.436;8.672;2024-03-02T00:58:04;98254.22;;;3.43;100.00
76257;BME280;65074;50.436;8.672;2024-03-02T01:00:30;98261.50;;;3.47;100.00
76257;BME280;65074;50.436;8.672;2024-03-02T01:02:55;98251.56;;;3.43;100.00
76257;BME280;65074;50.436;8.672;2024-03-02T01:05:20;98253.53;;;3.47;100.00
76257;BME280;65074;50.436;8.672;2024-03-02T01:07:46;98262.06;;;3.49;100.00
76257;BME280;65074;50.436;8.672;2024-03-02T01:10:12;98255.72;;;3.50;100.00
76257;BME280;65074;50.436;8.672;2024-03-02T01:12:37;98254.47;;;3.53;100.00
76257;BME280;65074;50.436;8.672;2024-03-02T01:15:03;98253.97;;;3.56;100.00
76257;BME280;65074;50.436;8.672;2024-03-02T01:17:31;98242.19;;;3.63;100.00
76257;BME280;65074;50.436;8.672;2024-03-02T01:19:56;98240.91;;;3.66;100.00
76257;BME280;65074;50.436;8.672;2024-03-02T01:22:22;98244.75;;;3.70;100.00
76257;BME280;65074;50.436;8.672;2024-03-02T01:24:50;98248.09;;;3.65;100.00
76257;BME280;65074;50.436;8.672;2024-03-02T01:27:15;98258.94;;;3.75;100.00
76257;BME280;65074;50.436;8.672;2024-03-02T01:29:41;98260.09;;;3.79;100.00
76257;BME280;65074;50.436;8.672;2024-03-02T01:32:06;98255.13;;;3.83;100.00
76257;BME280;65074;50.436;8.672;2024-03-02T01:34:31;98251.78;;;3.87;100.00
76257;BME280;65074;50.436;8.672;2024-03-02T01:36:57;98262.19;;;3.89;100.00
76257;BME280;65074;50.436;8.672;2024-03-02T01:39:22;98259.88;;;3.92;100.00
76257;BME280;65074;50.436;8.672;2024-03-02T01:41:47;98258.69;;;3.88;100.00
76257;BME280;65074;50.436;8.672;2024-03-02T01:44:13;98262.06;;;3.84;100.00
76257;BME280;65074;50.436;8.672;2024-03-02T01:46:38;98260.56;;;3.76;100.00
76257;BME280;65074;50.436;8.672;2024-03-02T01:49:03;98250.06;;;3.70;100.00
76257;BME280;65074;50.436;8.672;2024-03-02T01:51:29;98257.09;;;3.64;100.00
76257;BME280;65074;50.436;8.672;2024-03-02T01:53:55;98249.00;;;3.59;100.00
76257;BME280;65074;50.436;8.672;2024-03-02T01:56:20;98240.34;;;3.52;100.00
76257;BME280;65074;50.436;8.672;2024-03-02T01:58:45;98240.69;;;3.44;100.00
76257;BME280;65074;50.436;8.672;2024-03-02T02:01:11;98235.25;;;3.39;100.00
76257;BME280;65074;50.436;8.672;2024-03-02T02:03:36;98232.94;;;3.31;100.00
76257;BME280;65074;50.436;8.672;2024-03-02T02:06:02;98233.63;;;3.26;100.00
76257;BME280;65074;50.436;8.672;2024-03-02T02:08:27;98235.72;;;3.24;100.00
76257;BME280;65074;50.436;8.672;2024-03-02T02:10:53;98227.16;;;3.22;100.00
76257;BME280;65074;50.436;8.672;2024-03-02T02:13:18;98230.16;;;3.26;100.00
76257;BME280;65074;50.436;8.672;2024-03-02T02:15:43;98221.41;;;3.25;100.00
76257;BME280;65074;50.436;8.672;2024-03-02T02:18:09;98211.91;;;3.18;100.00
76257;BME280;65074;50.436;8.672;2024-03-02T02:20:34;98212.81;;;3.12;100.00
76257;BME280;65074;50.436;8.672;2024-03-02T02:23:01;98208.88;;;3.03;100.00
76257;BME280;65074;50.436;8.672;2024-03-02T02:25:27;98203.44;;;2.98;100.00
76257;BME280;65074;50.436;8.672;2024-03-02T02:27:53;98201.69;;;2.92;100.00
76257;BME280;65074;50.436;8.672;2024-03-02T02:30:19;98208.28;;;2.89;100.00
76257;BME280;65074;50.436;8.672;2024-03-02T02:32:46;98211.84;;;2.83;100.00
76257;BME280;65074;50.436;8.672;2024-03-02T02:35:12;98206.09;;;2.86;100.00
76257;BME280;65074;50.436;8.672;2024-03-02T02:37:38;98207.13;;;2.85;100.00
76257;BME280;65074;50.436;8.672;2024-03-02T02:40:04;98204.47;;;2.85;100.00
76257;BME280;65074;50.436;8.672;2024-03-02T02:42:30;98200.88;;;2.80;100.00
76257;BME280;65074;50.436;8.672;2024-03-02T02:44:55;98198.44;;;2.78;100.00
76257;BME280;65074;50.436;8.672;2024-03-02T02:47:21;98203.66;;;2.85;100.00
76257;BME280;65074;50.436;8.672;2024-03-02T02:49:46;98197.56;;;2.96;100.00
76257;BME280;65074;50.436;8.672;2024-03-02T02:52:11;98194.44;;;2.99;100.00
76257;BME280;65074;50.436;8.672;2024-03-02T02:54:37;98201.03;;;3.08;100.00
76257;BME280;65074;50.436;8.672;2024-03-02T02:57:03;98192.50;;;3.06;100.00
76257;BME280;65074;50.436;8.672;2024-03-02T02:59:28;98187.88;;;3.13;100.00
76257;BME280;65074;50.436;8.672;2024-03-02T03:01:53;98183.38;;;3.13;100.00
76257;BME280;65074;50.436;8.672;2024-03-02T03:04:19;98182.91;;;3.16;100.00
76257;BME280;65074;50.436;8.672;2024-03-02T03:06:45;98184.97;;;3.14;100.00
76257;BME280;65074;50.436;8.672;2024-03-02T03:09:11;98181.06;;;3.17;100.00
76257;BME280;65074;50.436;8.672;2024-03-02T03:11:36;98181.75;;;3.24;100.00
76257;BME280;65074;50.436;8.672;2024-03-02T03:14:02;98184.19;;;3.25;100.00
76257;BME280;65074;50.436;8.672;2024-03-02T03:16:28;98185.78;;;3.26;100.00
76257;BME280;65074;50.436;8.672;2024-03-02T03:18:53;98177.81;;;3.26;100.00
76257;BME280;65074;50.436;8.672;2024-03-02T03:21:19;98179.78;;;3.31;100.00
76257;BME280;65074;50.436;8.672;2024-03-02T03:23:44;98184.63;;;3.34;100.00
76257;BME280;65074;50.436;8.672;2024-03-02T03:26:10;98178.63;;;3.39;100.00
76257;BME280;65074;50.436;8.672;2024-03-02T03:28:35;98179.44;;;3.39;100.00
76257;BME280;65074;50.436;8.672;2024-03-02T03:31:01;98185.44;;;3.35;100.00
76257;BME280;65074;50.436;8.672;2024-03-02T03:33:27;98184.88;;;3.33;100.00
76257;BME280;65074;50.436;8.672;2024-03-02T03:35:52;98175.41;;;3.25;100.00
76257;BME280;65074;50.436;8.672;2024-03-02T03:38:18;98187.19;;;3.17;100.00
76257;BME280;65074;50.436;8.672;2024-03-02T03:40:44;98190.88;;;3.16;100.00
76257;BME280;65074;50.436;8.672;2024-03-02T03:43:10;98185.56;;;3.16;100.00
76257;BME280;65074;50.436;8.672;2024-03-02T03:45:35;98185.56;;;3.16;100.00
76257;BME280;65074;50.436;8.672;2024-03-02T03:48:02;98187.63;;;3.14;100.00
76257;BME280;65074;50.436;8.672;2024-03-02T03:50:27;98179.09;;;3.12;100.00
76257;BME280;65074;50.436;8.672;2024-03-02T03:52:52;98183.84;;;3.10;100.00
76257;BME280;65074;50.436;8.672;2024-03-02T03:55:18;98182.09;;;3.04;100.00
76257;BME280;65074;50.436;8.672;2024-03-02T03:57:43;98184.84;;;2.98;100.00
76257;BME280;65074;50.436;8.672;2024-03-02T04:00:08;98185.44;;;3.00;100.00
76257;BME280;65074;50.436;8.672;2024-03-02T04:02:38;98178.16;;;3.07;100.00
76257;BME280;65074;50.436;8.672;2024-03-02T04:05:04;98199.41;;;3.07;100.00
76257;BME280;65074;50.436;8.672;2024-03-02T04:07:34;98202.88;;;3.07;100.00
76257;BME280;65074;50.436;8.672;2024-03-02T04:10:08;98196.06;;;3.11;100.00
76257;BME280;65074;50.436;8.672;2024-03-02T04:12:37;98191.09;;;3.15;100.00
76257;BME280;65074;50.436;8.672;2024-03-02T04:15:04;98194.47;;;3.22;100.00
76257;BME280;65074;50.436;8.672;2024-03-02T04:17:32;98180.94;;;3.23;100.00
76257;BME280;65074;50.436;8.672;2024-03-02T04:19:57;98180.25;;;3.28;100.00
76257;BME280;65074;50.436;8.672;2024-03-02T04:22:23;98179.56;;;3.33;100.00
76257;BME280;65074;50.436;8.672;2024-03-02T04:24:48;98185.00;;;3.38;100.00
76257;BME280;65074;50.436;8.672;2024-03-02T04:27:14;98181.88;;;3.41;100.00
76257;BME280;65074;50.436;8.672;2024-03-02T04:29:39;98184.03;;;3.44;100.00
76257;BME280;65074;50.436;8.672;2024-03-02T04:32:04;98187.28;;;3.46;100.00
76257;BME280;65074;50.436;8.672;2024-03-02T04:34:30;98183.03;;;3.45;100.00
76257;BME280;65074;50.436;8.672;2024-03-02T04:36:55;98186.00;;;3.48;100.00
76257;BME280;65074;50.436;8.672;2024-03-02T04:39:20;98186.59;;;3.50;100.00
76257;BME280;65074;50.436;8.672;2024-03-02T04:41:46;98180.47;;;3.50;100.00
76257;BME280;65074;50.436;8.672;2024-03-02T04:44:11;98177.00;;;3.49;100.00
76257;BME280;65074;50.436;8.672;2024-03-02T04:46:36;98181.28;;;3.50;100.00
76257;BME280;65074;50.436;8.672;2024-03-02T04:49:02;98189.69;;;3.59;100.00
76257;BME280;65074;50.436;8.672;2024-03-02T04:51:27;98195.25;;;3.69;100.00
76257;BME280;65074;50.436;8.672;2024-03-02T04:53:52;98195.00;;;3.70;100.00
76257;BME280;65074;50.436;8.672;2024-03-02T04:56:18;98199.03;;;3.73;100.00
76257;BME280;65074;50.436;8.672;2024-03-02T04:59:02;98196.63;;;3.71;100.00
76257;BME280;65074;50.436;8.672;2024-03-02T05:01:27;98189.91;;;3.69;100.00
76257;BME280;65074;50.436;8.672;2024-03-02T05:03:52;98196.50;;;3.66;100.00
76257;BME280;65074;50.436;8.672;2024-03-02T05:06:18;98198.50;;;3.59;100.00
76257;BME280;65074;50.436;8.672;2024-03-02T05:08:43;98198.75;;;3.58;100.00
76257;BME280;65074;50.436;8.672;2024-03-02T05:11:10;98203.69;;;3.54;100.00
76257;BME280;65074;50.436;8.672;2024-03-02T05:13:53;98208.34;;;3.47;100.00
76257;BME280;65074;50.436;8.672;2024-03-02T05:16:19;98207.41;;;3.42;100.00
76257;BME280;65074;50.436;8.672;2024-03-02T05:18:44;98205.09;;;3.34;100.00
76257;BME280;65074;50.436;8.672;2024-03-02T05:21:09;98205.09;;;3.34;100.00
76257;BME280;65074;50.436;8.672;2024-03-02T05:23:35;98198.63;;;3.29;100.00
76257;BME280;65074;50.436;8.672;2024-03-02T05:26:00;98198.63;;;3.29;100.00
76257;BME280;65074;50.436;8.672;2024-03-02T05:28:25;98206.47;;;3.36;100.00
76257;BME280;65074;50.436;8.672;2024-03-02T05:30:51;98197.09;;;3.34;100.00
76257;BME280;65074;50.436;8.672;2024-03-02T05:33:16;98208.53;;;3.46;100.00
76257;BME280;65074;50.436;8.672;2024-03-02T05:35:43;98217.47;;;3.40;100.00
76257;BME280;65074;50.436;8.672;2024-03-02T05:38:09;98214.94;;;3.33;100.00
76257;BME280;65074;50.436;8.672;2024-03-02T05:40:34;98217.47;;;3.28;100.00
76257;BME280;65074;50.436;8.672;2024-03-02T05:43:00;98226.22;;;3.28;100.00
76257;BME280;65074;50.436;8.672;2024-03-02T05:45:25;98217.91;;;3.25;100.00
76257;BME280;65074;50.436;8.672;2024-03-02T05:47:50;98222.19;;;3.26;100.00
76257;BME280;65074;50.436;8.672;2024-03-02T05:50:16;98225.06;;;3.36;100.00
76257;BME280;65074;50.436;8.672;2024-03-02T05:52:41;98224.28;;;3.36;100.00
76257;BME280;65074;50.436;8.672;2024-03-02T05:55:06;98226.13;;;3.35;100.00
76257;BME280;65074;50.436;8.672;2024-03-02T05:57:32;98227.53;;;3.38;100.00
76257;BME280;65074;50.436;8.672;2024-03-02T06:00:13;98226.94;;;3.36;100.00
76257;BME280;65074;50.436;8.672;2024-03-02T06:02:39;98232.59;;;3.39;100.00
76257;BME280;65074;50.436;8.672;2024-03-02T06:05:06;98228.53;;;3.37;100.00
76257;BME280;65074;50.436;8.672;2024-03-02T06:07:32;98229.00;;;3.34;100.00
76257;BME280;65074;50.436;8.672;2024-03-02T06:09:57;98230.19;;;3.38;100.00
76257;BME280;65074;50.436;8.672;2024-03-02T06:12:24;98228.09;;;3.40;100.00
76257;BME280;65074;50.436;8.672;2024-03-02T06:14:49;98232.38;;;3.41;100.00
76257;BME280;65074;50.436;8.672;2024-03-02T06:17:14;98236.75;;;3.47;100.00
76257;BME280;65074;50.436;8.672;2024-03-02T06:19:40;98240.34;;;3.52;100.00
76257;BME280;65074;50.436;8.672;2024-03-02T06:22:05;98236.53;;;3.60;100.00
76257;BME280;65074;50.436;8.672;2024-03-02T06:24:31;98233.41;;;3.63;100.00
76257;BME280;65074;50.436;8.672;2024-03-02T06:26:56;98235.84;;;3.64;100.00
76257;BME280;65074;50.436;8.672;2024-03-02T06:29:21;98242.88;;;3.70;100.00
76257;BME280;65074;50.436;8.672;2024-03-02T06:31:47;98248.09;;;3.77;100.00
76257;BME280;65074;50.436;8.672;2024-03-02T06:34:12;98249.56;;;3.84;100.00
76257;BME280;65074;50.436;8.672;2024-03-02T06:36:38;98251.53;;;3.89;100.00
76257;BME280;65074;50.436;8.672;2024-03-02T06:39:05;98258.00;;;3.93;100.00
76257;BME280;65074;50.436;8.672;2024-03-02T06:41:30;98260.75;;;3.98;100.00
76257;BME280;65074;50.436;8.672;2024-03-02T06:43:56;98256.38;;;4.04;100.00
76257;BME280;65074;50.436;8.672;2024-03-02T06:46:25;98259.69;;;4.11;100.00
76257;BME280;65074;50.436;8.672;2024-03-02T06:48:50;98260.88;;;4.15;100.00
76257;BME280;65074;50.436;8.672;2024-03-02T06:51:15;98262.47;;;4.16;100.00
76257;BME280;65074;50.436;8.672;2024-03-02T06:53:41;98262.00;;;4.19;100.00
76257;BME280;65074;50.436;8.672;2024-03-02T06:56:07;98263.59;;;4.20;100.00
76257;BME280;65074;50.436;8.672;2024-03-02T06:58:33;98266.19;;;4.15;100.00
76257;BME280;65074;50.436;8.672;2024-03-02T07:00:58;98268.50;;;4.11;100.00
76257;BME280;65074;50.436;8.672;2024-03-02T07:03:25;98270.25;;;4.06;100.00
76257;BME280;65074;50.436;8.672;2024-03-02T07:05:51;98269.09;;;4.02;100.00
76257;BME280;65074;50.436;8.672;2024-03-02T07:08:16;98272.69;;;3.95;100.00
76257;BME280;65074;50.436;8.672;2024-03-02T07:10:41;98274.78;;;3.93;100.00
76257;BME280;65074;50.436;8.672;2024-03-02T07:13:07;98278.25;;;3.94;100.00
76257;BME280;65074;50.436;8.672;2024-03-02T07:15:32;98285.88;;;4.02;100.00
76257;BME280;65074;50.436;8.672;2024-03-02T07:18:16;98286.66;;;4.14;100.00
76257;BME280;65074;50.436;8.672;2024-03-02T07:20:41;98288.16;;;4.22;100.00
76257;BME280;65074;50.436;8.672;2024-03-02T07:23:07;98292.41;;;4.23;100.00
76257;BME280;65074;50.436;8.672;2024-03-02T07:25:32;98293.69;;;4.20;100.00
76257;BME280;65074;50.436;8.672;2024-03-02T07:27:57;98289.34;;;4.14;100.00
76257;BME280;65074;50.436;8.672;2024-03-02T07:30:23;98287.84;;;4.07;100.00
76257;BME280;65074;50.436;8.672;2024-03-02T07:32:50;98291.53;;;4.06;100.00
76257;BME280;65074;50.436;8.672;2024-03-02T07:35:15;98289.94;;;4.05;100.00
76257;BME280;65074;50.436;8.672;2024-03-02T07:37:42;98288.28;;;4.04;100.00
76257;BME280;65074;50.436;8.672;2024-03-02T07:40:08;98294.44;;;4.04;100.00
76257;BME280;65074;50.436;8.672;2024-03-02T07:42:38;98298.13;;;4.03;100.00
76257;BME280;65074;50.436;8.672;2024-03-02T07:45:05;98303.56;;;4.08;100.00
76257;BME280;65074;50.436;8.672;2024-03-02T07:47:30;98302.50;;;4.21;100.00
76257;BME280;65074;50.436;8.672;2024-03-02T07:49:56;98309.88;;;4.30;100.00
76257;BME280;65074;50.436;8.672;2024-03-02T07:52:21;98303.84;;;4.46;100.00
76257;BME280;65074;50.436;8.672;2024-03-02T07:54:46;98302.06;;;4.64;100.00
76257;BME280;65074;50.436;8.672;2024-03-02T07:57:12;98300.25;;;4.81;100.00
76257;BME280;65074;50.436;8.672;2024-03-02T07:59:37;98310.53;;;4.89;100.00
76257;BME280;65074;50.436;8.672;2024-03-02T08:02:03;98315.22;;;4.98;100.00
76257;BME280;65074;50.436;8.672;2024-03-02T08:04:31;98325.53;;;5.23;100.00
76257;BME280;65074;50.436;8.672;2024-03-02T08:06:57;98327.97;;;5.41;100.00
76257;BME280;65074;50.436;8.672;2024-03-02T08:09:22;98326.75;;;5.65;100.00
76257;BME280;65074;50.436;8.672;2024-03-02T08:11:47;98325.41;;;5.96;100.00
76257;BME280;65074;50.436;8.672;2024-03-02T08:14:13;98320.72;;;6.25;100.00
76257;BME280;65074;50.436;8.672;2024-03-02T08:16:38;98329.56;;;6.47;100.00
76257;BME280;65074;50.436;8.672;2024-03-02T08:19:03;98321.38;;;6.75;100.00
76257;BME280;65074;50.436;8.672;2024-03-02T08:21:29;98321.66;;;7.00;100.00
76257;BME280;65074;50.436;8.672;2024-03-02T08:23:56;98329.94;;;7.26;100.00
76257;BME280;65074;50.436;8.672;2024-03-02T08:26:23;98326.81;;;7.39;100.00
76257;BME280;65074;50.436;8.672;2024-03-02T08:28:48;98320.69;;;7.43;100.00
76257;BME280;65074;50.436;8.672;2024-03-02T08:31:14;98330.19;;;7.56;100.00
76257;BME280;65074;50.436;8.672;2024-03-02T08:33:39;98316.06;;;7.60;100.00
76257;BME280;65074;50.436;8.672;2024-03-02T08:36:05;98318.16;;;7.95;100.00
76257;BME280;65074;50.436;8.672;2024-03-02T08:38:31;98312.13;;;8.15;100.00
76257;BME280;65074;50.436;8.672;2024-03-02T08:40:57;98315.19;;;8.28;100.00
76257;BME280;65074;50.436;8.672;2024-03-02T08:43:22;98323.25;;;8.33;100.00
76257;BME280;65074;50.436;8.672;2024-03-02T08:45:48;98314.75;;;8.41;100.00
76257;BME280;65074;50.436;8.672;2024-03-02T08:48:13;98320.91;;;8.47;100.00
76257;BME280;65074;50.436;8.672;2024-03-02T08:50:39;98321.47;;;8.49;100.00
76257;BME280;65074;50.436;8.672;2024-03-02T08:53:04;98316.41;;;8.58;100.00
76257;BME280;65074;50.436;8.672;2024-03-02T08:55:30;98328.44;;;8.50;100.00
76257;BME280;65074;50.436;8.672;2024-03-02T08:57:55;98321.69;;;8.42;100.00
76257;BME280;65074;50.436;8.672;2024-03-02T09:00:21;98327.94;;;8.58;100.00
76257;BME280;65074;50.436;8.672;2024-03-02T09:02:47;98325.47;;;8.46;100.00
76257;BME280;65074;50.436;8.672;2024-03-02T09:05:12;98333.81;;;8.55;100.00
76257;BME280;65074;50.436;8.672;2024-03-02T09:07:38;98322.84;;;8.62;100.00
76257;BME280;65074;50.436;8.672;2024-03-02T09:10:05;98334.13;;;8.64;100.00
76257;BME280;65074;50.436;8.672;2024-03-02T09:12:31;98334.13;;;8.59;100.00
76257;BME280;65074;50.436;8.672;2024-03-02T09:14:57;98336.88;;;8.74;100.00
76257;BME280;65074;50.436;8.672;2024-03-02T09:17:23;98340.13;;;8.86;100.00
76257;BME280;65074;50.436;8.672;2024-03-02T09:19:48;98335.34;;;8.98;100.00
76257;BME280;65074;50.436;8.672;2024-03-02T09:22:13;98335.59;;;9.01;100.00
76257;BME280;65074;50.436;8.672;2024-03-02T09:24:39;98327.53;;;9.01;100.00
76257;BME280;65074;50.436;8.672;2024-03-02T09:27:04;98331.06;;;9.12;100.00
76257;BME280;65074;50.436;8.672;2024-03-02T09:29:31;98335.09;;;9.20;100.00
76257;BME280;65074;50.436;8.672;2024-03-02T09:31:56;98327.59;;;9.22;100.00
76257;BME280;65074;50.436;8.672;2024-03-02T09:34:21;98327.34;;;9.23;100.00
76257;BME280;65074;50.436;8.672;2024-03-02T09:36:47;98333.78;;;9.27;100.00
76257;BME280;65074;50.436;8.672;2024-03-02T09:39:12;98325.75;;;9.37;100.00
76257;BME280;65074;50.436;8.672;2024-03-02T09:41:38;98317.19;;;9.45;100.00
76257;BME280;65074;50.436;8.672;2024-03-02T09:44:05;98320.66;;;9.56;99.09
76257;BME280;65074;50.436;8.672;2024-03-02T09:46:30;98323.09;;;9.82;96.29
76257;BME280;65074;50.436;8.672;2024-03-02T09:48:56;98310.72;;;10.02;93.61
76257;BME280;65074;50.436;8.672;2024-03-02T09:51:22;98308.81;;;10.17;92.35
76257;BME280;65074;50.436;8.672;2024-03-02T09:53:48;98309.06;;;10.31;93.10
76257;BME280;65074;50.436;8.672;2024-03-02T09:56:14;98307.16;;;10.36;89.76
76257;BME280;65074;50.436;8.672;2024-03-02T09:58:41;98308.28;;;10.20;91.33
76257;BME280;65074;50.436;8.672;2024-03-02T10:01:06;98306.97;;;9.72;92.80
76257;BME280;65074;50.436;8.672;2024-03-02T10:03:33;98309.13;;;9.50;94.52
76257;BME280;65074;50.436;8.672;2024-03-02T10:06:27;98315.00;;;9.32;96.84
76257;BME280;65074;50.436;8.672;2024-03-02T10:08:54;98309.38;;;9.34;97.04
76257;BME280;65074;50.436;8.672;2024-03-02T10:11:29;98309.34;;;9.29;97.86
76257;BME280;65074;50.436;8.672;2024-03-02T10:14:12;98306.94;;;9.22;96.56
76257;BME280;65074;50.436;8.672;2024-03-02T10:16:40;98310.72;;;9.36;96.85
76257;BME280;65074;50.436;8.672;2024-03-02T10:19:22;98314.75;;;9.44;96.57
76257;BME280;65074;50.436;8.672;2024-03-02T10:21:52;98319.06;;;9.65;95.94
76257;BME280;65074;50.436;8.672;2024-03-02T10:24:18;98314.22;;;9.72;94.37
76257;BME280;65074;50.436;8.672;2024-03-02T10:26:44;98308.84;;;10.02;95.55
76257;BME280;65074;50.436;8.672;2024-03-02T10:29:10;98317.13;;;10.31;93.57
76257;BME280;65074;50.436;8.672;2024-03-02T10:31:40;98310.06;;;10.50;90.71
76257;BME280;65074;50.436;8.672;2024-03-02T10:34:06;98306.53;;;10.65;88.84
76257;BME280;65074;50.436;8.672;2024-03-02T10:36:36;98313.50;;;10.71;87.89
76257;BME280;65074;50.436;8.672;2024-03-02T10:39:06;98311.22;;;10.98;84.65
76257;BME280;65074;50.436;8.672;2024-03-02T10:41:33;98308.03;;;10.91;86.64
76257;BME280;65074;50.436;8.672;2024-03-02T10:44:02;98302.00;;;11.09;83.83
76257;BME280;65074;50.436;8.672;2024-03-02T10:46:29;98304.63;;;11.19;81.95
76257;BME280;65074;50.436;8.672;2024-03-02T10:48:58;98295.09;;;11.37;83.72
76257;BME280;65074;50.436;8.672;2024-03-02T10:51:25;98300.88;;;11.54;83.53
76257;BME280;65074;50.436;8.672;2024-03-02T10:53:52;98295.75;;;11.57;80.84
76257;BME280;65074;50.436;8.672;2024-03-02T10:56:22;98290.53;;;11.71;79.42
76257;BME280;65074;50.436;8.672;2024-03-02T10:58:51;98286.97;;;11.75;79.10
76257;BME280;65074;50.436;8.672;2024-03-02T11:01:20;98293.25;;;11.66;77.92
76257;BME280;65074;50.436;8.672;2024-03-02T11:03:46;98286.50;;;11.68;77.16
76257;BME280;65074;50.436;8.672;2024-03-02T11:06:13;98284.84;;;11.78;77.70
76257;BME280;65074;50.436;8.672;2024-03-02T11:08:40;98276.84;;;11.96;77.21
76257;BME280;65074;50.436;8.672;2024-03-02T11:11:15;98272.47;;;12.00;74.35
76257;BME280;65074;50.436;8.672;2024-03-02T11:13:47;98274.31;;;12.05;75.37
76257;BME280;65074;50.436;8.672;2024-03-02T11:16:34;98279.28;;;12.21;72.16
76257;BME280;65074;50.436;8.672;2024-03-02T11:19:05;98273.19;;;12.11;74.25
76257;BME280;65074;50.436;8.672;2024-03-02T11:21:33;98273.38;;;12.19;75.00
76257;BME280;65074;50.436;8.672;2024-03-02T11:23:58;98270.16;;;12.41;73.99
76257;BME280;65074;50.436;8.672;2024-03-02T11:26:24;98262.56;;;12.43;73.36
76257;BME280;65074;50.436;8.672;2024-03-02T11:28:49;98261.94;;;12.51;74.97
76257;BME280;65074;50.436;8.672;2024-03-02T11:31:15;98262.19;;;12.73;74.35
76257;BME280;65074;50.436;8.672;2024-03-02T11:33:40;98261.13;;;12.93;72.11
76257;BME280;65074;50.436;8.672;2024-03-02T11:36:09;98262.63;;;13.23;71.37
76257;BME280;65074;50.436;8.672;2024-03-02T11:38:35;98272.88;;;13.39;69.83
76257;BME280;65074;50.436;8.672;2024-03-02T11:41:07;98263.16;;;13.38;69.15
76257;BME280;65074;50.436;8.672;2024-03-02T11:43:37;98264.97;;;13.61;67.27
76257;BME280;65074;50.436;8.672;2024-03-02T11:46:04;98260.16;;;13.58;68.47
76257;BME280;65074;50.436;8.672;2024-03-02T11:48:32;98262.19;;;13.80;66.88
76257;BME280;65074;50.436;8.672;2024-03-02T11:51:00;98258.16;;;14.10;64.69
76257;BME280;65074;50.436;8.672;2024-03-02T11:53:27;98254.97;;;14.21;64.12
76257;BME280;65074;50.436;8.672;2024-03-02T11:55:55;98257.66;;;14.08;64.26
76257;BME280;65074;50.436;8.672;2024-03-02T11:58:21;98246.75;;;14.13;62.89
76257;BME280;65074;50.436;8.672;2024-03-02T12:00:55;98248.22;;;13.92;64.78
76257;BME280;65074;50.436;8.672;2024-03-02T12:03:23;98245.84;;;14.04;63.01
76257;BME280;65074;50.436;8.672;2024-03-02T12:05:49;98235.63;;;14.01;63.57
76257;BME280;65074;50.436;8.672;2024-03-02T12:08:16;98239.84;;;14.20;62.42
76257;BME280;65074;50.436;8.672;2024-03-02T12:10:41;98233.34;;;14.21;63.27
76257;BME280;65074;50.436;8.672;2024-03-02T12:13:07;98224.44;;;14.34;62.59
76257;BME280;65074;50.436;8.672;2024-03-02T12:15:35;98219.25;;;14.38;62.49
76257;BME280;65074;50.436;8.672;2024-03-02T12:18:02;98230.25;;;14.55;61.78
76257;BME280;65074;50.436;8.672;2024-03-02T12:20:29;98224.63;;;14.65;61.50
76257;BME280;65074;50.436;8.672;2024-03-02T12:22:57;98219.59;;;14.86;58.50
76257;BME280;65074;50.436;8.672;2024-03-02T12:25:24;98218.69;;;14.77;60.03
76257;BME280;65074;50.436;8.672;2024-03-02T12:27:51;98218.59;;;15.04;59.11
76257;BME280;65074;50.436;8.672;2024-03-02T12:30:18;98219.63;;;15.08;58.03
76257;BME280;65074;50.436;8.672;2024-03-02T12:32:44;98206.63;;;15.63;58.26
76257;BME280;65074;50.436;8.672;2024-03-02T12:35:13;98210.44;;;16.23;55.35
76257;BME280;65074;50.436;8.672;2024-03-02T12:37:46;98200.56;;;16.92;53.83
76257;BME280;65074;50.436;8.672;2024-03-02T12:40:12;98204.91;;;18.08;50.53
76257;BME280;65074;50.436;8.672;2024-03-02T12:42:39;98210.09;;;18.31;49.14
76257;BME280;65074;50.436;8.672;2024-03-02T12:45:05;98193.66;;;19.60;45.86
76257;BME280;65074;50.436;8.672;2024-03-02T12:47:30;98190.06;;;20.37;43.33
76257;BME280;65074;50.436;8.672;2024-03-02T12:49:56;98185.44;;;20.77;42.02
76257;BME280;65074;50.436;8.672;2024-03-02T12:52:22;98182.34;;;21.43;40.34
76257;BME280;65074;50.436;8.672;2024-03-02T12:54:49;98179.72;;;21.62;39.36
76257;BME280;65074;50.436;8.672;2024-03-02T12:57:20;98175.94;;;21.38;39.11
76257;BME280;65074;50.436;8.672;2024-03-02T12:59:47;98179.63;;;21.58;38.95